createdAt,value
2022-10-19T00:00:51.966Z,21.27
2022-10-19T00:03:22.297Z,16.53
2022-10-19T00:05:50.286Z,18.10
2022-10-19T00:08:17.297Z,15.17
2022-10-19T00:10:44.283Z,19.43
2022-10-19T00:13:11.266Z,15.57
2022-10-19T00:15:41.537Z,17.97
2022-10-19T00:18:11.905Z,18.83
2022-10-19T00:20:38.874Z,17.90
2022-10-19T00:23:05.840Z,21.20
2022-10-19T00:25:32.854Z,20.67
2022-10-19T00:27:59.840Z,18.00
2022-10-19T00:30:26.851Z,15.20
2022-10-19T00:32:53.835Z,18.95
2022-10-19T00:35:20.818Z,24.70
2022-10-19T00:37:47.793Z,21.33
2022-10-19T00:40:14.872Z,17.30
2022-10-19T00:42:41.844Z,20.37
2022-10-19T00:45:16.480Z,15.47
2022-10-19T00:47:44.148Z,18.70
2022-10-19T00:50:11.682Z,20.30
2022-10-19T00:52:38.751Z,20.20
2022-10-19T00:55:07.495Z,23.00
2022-10-19T00:57:34.496Z,16.77
2022-10-19T01:00:02.218Z,18.53
2022-10-19T01:02:29.225Z,21.80
2022-10-19T01:04:56.398Z,18.13
2022-10-19T01:07:24.675Z,17.73
2022-10-19T01:09:51.818Z,16.23
2022-10-19T01:12:40.781Z,20.07
2022-10-19T01:15:31.056Z,24.07
2022-10-19T01:18:13.023Z,24.77
2022-10-19T01:21:04.677Z,26.57
2022-10-19T01:23:46.785Z,20.77
2022-10-19T01:26:16.642Z,22.27
2022-10-19T01:28:46.708Z,24.50
2022-10-19T01:31:27.876Z,22.13
2022-10-19T01:33:54.955Z,18.23
2022-10-19T01:36:24.934Z,18.73
2022-10-19T01:38:54.498Z,17.53
2022-10-19T01:41:29.143Z,17.27
2022-10-19T01:43:59.318Z,18.50
2022-10-19T01:46:35.116Z,17.67
2022-10-19T01:49:08.418Z,17.07
2022-10-19T01:51:39.121Z,21.40
2022-10-19T01:54:07.686Z,33.17
2022-10-19T01:56:34.887Z,23.70
2022-10-19T01:59:04.211Z,28.33
2022-10-19T02:01:33.791Z,26.00
2022-10-19T02:04:01.296Z,26.13
2022-10-19T02:06:28.370Z,28.37
2022-10-19T02:08:55.683Z,30.73
2022-10-19T02:11:23.283Z,30.77
2022-10-19T02:13:55.541Z,30.20
2022-10-19T02:16:26.221Z,50.27
2022-10-19T02:18:53.953Z,48.67
2022-10-19T02:21:21.207Z,44.07
2022-10-19T02:23:49.410Z,50.43
2022-10-19T02:26:19.222Z,35.97
2022-10-19T02:28:46.488Z,31.17
2022-10-19T02:31:13.693Z,30.03
2022-10-19T02:33:40.723Z,29.07
2022-10-19T02:36:07.879Z,29.40
2022-10-19T02:38:34.951Z,29.13
2022-10-19T02:41:08.407Z,29.17
2022-10-19T02:43:37.656Z,33.50
2022-10-19T02:46:07.449Z,34.30
2022-10-19T02:48:35.443Z,26.93
2022-10-19T02:51:02.900Z,23.03
2022-10-19T02:53:29.919Z,25.10
2022-10-19T02:55:56.934Z,32.90
2022-10-19T02:58:23.894Z,47.37
2022-10-19T03:00:50.964Z,34.80
2022-10-19T03:03:17.955Z,44.70
2022-10-19T03:05:44.942Z,39.97
2022-10-19T03:08:11.922Z,45.17
2022-10-19T03:10:38.905Z,44.33
2022-10-19T03:13:05.936Z,63.60
2022-10-19T03:15:32.903Z,52.00
2022-10-19T03:17:59.878Z,53.23
2022-10-19T03:20:26.944Z,56.93
2022-10-19T03:25:25.918Z,55.63
2022-10-19T03:27:52.898Z,48.73
2022-10-19T03:30:19.871Z,50.07
2022-10-19T03:32:46.839Z,58.13
2022-10-19T03:35:13.836Z,56.43
2022-10-19T03:37:40.856Z,63.40
2022-10-19T03:40:08.170Z,52.03
2022-10-19T03:42:35.159Z,65.17
2022-10-19T03:45:02.140Z,65.20
2022-10-19T03:47:29.186Z,62.50
2022-10-19T03:49:56.166Z,63.30
2022-10-19T03:52:23.123Z,61.83
2022-10-19T03:54:51.167Z,67.23
2022-10-19T03:57:18.163Z,72.10
2022-10-19T03:59:45.185Z,80.67
2022-10-19T04:02:12.161Z,63.43
2022-10-19T04:04:39.260Z,60.53
2022-10-19T04:07:06.279Z,78.13
2022-10-19T04:09:33.264Z,77.10
2022-10-19T04:12:00.236Z,71.30
2022-10-19T04:14:33.276Z,81.30
2022-10-19T04:17:06.323Z,93.03
2022-10-19T04:19:33.314Z,82.43
2022-10-19T04:22:00.475Z,88.47
2022-10-19T04:24:27.826Z,69.50
2022-10-19T04:26:55.441Z,83.73
2022-10-19T04:29:27.866Z,85.33
2022-10-19T04:31:57.005Z,78.10
2022-10-19T04:34:24.182Z,76.73
2022-10-19T04:36:51.180Z,76.80
2022-10-19T04:39:18.227Z,61.53
2022-10-19T04:41:45.199Z,69.17
2022-10-19T04:44:12.291Z,65.87
2022-10-19T04:46:39.442Z,62.13
2022-10-19T04:49:06.904Z,60.70
2022-10-19T04:51:34.070Z,68.30
2022-10-19T04:54:01.116Z,64.80
2022-10-19T04:56:29.040Z,64.80
2022-10-19T04:58:57.382Z,71.57
2022-10-19T05:01:25.355Z,71.40
2022-10-19T05:06:28.882Z,72.73
2022-10-19T05:08:55.963Z,80.37
2022-10-19T05:11:23.107Z,73.00
2022-10-19T05:13:50.090Z,69.87
2022-10-19T05:16:21.789Z,78.20
2022-10-19T05:18:52.636Z,75.07
2022-10-19T05:21:20.806Z,74.03
2022-10-19T05:23:47.796Z,74.47
2022-10-19T05:26:17.313Z,62.87
2022-10-19T05:28:48.029Z,54.73
2022-10-19T05:31:16.579Z,57.17
2022-10-19T05:33:43.753Z,53.83
2022-10-19T05:36:15.170Z,50.20
2022-10-19T05:38:42.622Z,51.13
2022-10-19T05:41:10.465Z,48.40
2022-10-19T05:43:37.548Z,52.60
2022-10-19T05:46:08.481Z,47.63
2022-10-19T05:48:36.029Z,52.53
2022-10-19T05:51:05.121Z,49.90
2022-10-19T05:53:32.857Z,45.80
2022-10-19T05:56:00.006Z,42.83
2022-10-19T05:58:27.262Z,46.30
2022-10-19T06:00:55.209Z,41.47
2022-10-19T06:03:22.621Z,41.93
2022-10-19T06:05:49.976Z,41.77
2022-10-19T06:08:17.906Z,43.00
2022-10-19T06:10:45.433Z,40.30
2022-10-19T06:13:14.619Z,42.40
2022-10-19T06:15:41.982Z,39.27
2022-10-19T06:18:09.977Z,34.80
2022-10-19T06:20:37.547Z,34.40
2022-10-19T06:23:05.487Z,35.57
2022-10-19T06:25:33.030Z,40.13
2022-10-19T06:28:00.134Z,31.07
2022-10-19T06:30:27.284Z,31.73
2022-10-19T06:32:54.521Z,27.47
2022-10-19T06:35:21.603Z,24.73
2022-10-19T06:37:48.561Z,21.73
2022-10-19T06:40:15.639Z,21.90
2022-10-19T06:42:42.603Z,18.77
2022-10-19T06:45:10.479Z,19.93
2022-10-19T06:47:38.479Z,21.75
2022-10-19T06:50:06.611Z,21.63
2022-10-19T06:52:34.620Z,18.50
2022-10-19T06:55:01.914Z,19.57
2022-10-19T06:57:28.899Z,17.20
2022-10-19T06:59:56.014Z,17.90
2022-10-19T07:02:22.983Z,17.50
2022-10-19T07:04:49.964Z,16.20
2022-10-19T07:07:16.975Z,18.20
2022-10-19T07:09:43.982Z,17.43
2022-10-19T07:12:10.947Z,17.67
2022-10-19T07:14:39.657Z,16.70
2022-10-19T07:17:07.631Z,19.53
2022-10-19T07:19:35.073Z,16.50
2022-10-19T07:22:02.070Z,20.20
2022-10-19T07:24:29.120Z,18.43
2022-10-19T07:26:56.181Z,18.77
2022-10-19T07:29:23.214Z,16.77
2022-10-19T07:31:50.212Z,15.73
2022-10-19T07:34:17.365Z,19.03
2022-10-19T07:36:45.973Z,19.10
2022-10-19T07:39:13.151Z,17.53
2022-10-19T07:41:40.140Z,17.57
2022-10-19T07:44:08.213Z,17.73
2022-10-19T07:46:37.212Z,18.73
2022-10-19T07:49:05.706Z,20.00
2022-10-19T07:51:32.775Z,17.87
2022-10-19T07:54:00.090Z,16.50
2022-10-19T07:56:27.887Z,16.77
2022-10-19T07:58:56.009Z,16.47
2022-10-19T08:01:24.166Z,21.63
2022-10-19T08:06:39.966Z,18.37
2022-10-19T08:09:07.114Z,18.40
2022-10-19T08:11:35.365Z,20.37
2022-10-19T08:14:03.121Z,17.13
2022-10-19T08:16:34.103Z,22.37
2022-10-19T08:19:03.899Z,16.00
2022-10-19T08:21:31.007Z,15.67
2022-10-19T08:23:57.647Z,15.33
2022-10-19T08:26:25.383Z,17.13
2022-10-19T08:28:51.968Z,17.23
2022-10-19T08:31:21.197Z,16.43
2022-10-19T08:33:50.268Z,14.57
2022-10-19T08:36:17.417Z,16.15
2022-10-19T08:38:44.947Z,17.77
2022-10-19T08:41:49.731Z,15.27
2022-10-19T08:44:27.510Z,16.73
2022-10-19T08:47:03.430Z,14.77
2022-10-19T08:49:31.991Z,13.97
2022-10-19T08:52:11.541Z,13.67
2022-10-19T08:57:41.763Z,12.17
2022-10-19T09:00:29.572Z,14.07
2022-10-19T09:03:27.144Z,14.80
2022-10-19T09:06:34.690Z,15.40
2022-10-19T09:09:01.344Z,14.63
2022-10-19T09:11:34.649Z,13.27
2022-10-19T09:14:13.760Z,14.20
2022-10-19T09:16:40.375Z,15.20
2022-10-19T09:19:21.891Z,13.40
2022-10-19T09:22:16.265Z,13.17
2022-10-19T09:24:53.875Z,13.37
2022-10-19T09:27:23.626Z,13.83
2022-10-19T09:29:58.337Z,14.17
2022-10-19T09:32:31.057Z,12.70
2022-10-19T09:35:02.301Z,11.77
2022-10-19T09:37:31.150Z,12.23
2022-10-19T09:39:57.931Z,13.37
2022-10-19T09:42:36.819Z,12.33
2022-10-19T09:45:19.729Z,11.50
2022-10-19T09:47:48.530Z,10.80
2022-10-19T09:50:25.134Z,11.20
2022-10-19T09:52:52.758Z,10.77
2022-10-19T09:55:28.537Z,9.83
2022-10-19T09:58:04.473Z,9.53
2022-10-19T10:00:37.255Z,7.37
2022-10-19T10:03:05.919Z,9.40
2022-10-19T10:05:38.598Z,7.87
2022-10-19T10:08:14.096Z,6.77
2022-10-19T10:10:45.260Z,7.10
2022-10-19T10:13:24.724Z,8.27
2022-10-19T10:16:00.117Z,6.30
2022-10-19T10:18:28.550Z,7.83
2022-10-19T10:21:25.287Z,5.63
2022-10-19T10:24:12.066Z,5.93
2022-10-19T10:26:41.878Z,9.53
2022-10-19T10:29:18.482Z,5.43
2022-10-19T10:31:51.760Z,6.00
2022-10-19T10:34:51.337Z,4.63
2022-10-19T10:37:24.164Z,5.27
2022-10-19T10:39:52.847Z,4.37
2022-10-19T10:42:29.234Z,7.73
2022-10-19T10:44:56.380Z,7.53
2022-10-19T10:47:23.320Z,4.17
2022-10-19T10:49:56.351Z,5.13
2022-10-19T10:52:23.499Z,4.53
2022-10-19T10:55:02.534Z,6.90
2022-10-19T10:57:34.255Z,4.93
2022-10-19T11:00:03.810Z,4.43
2022-10-19T11:02:36.600Z,7.27
2022-10-19T11:05:18.442Z,5.60
2022-10-19T11:07:48.242Z,4.83
2022-10-19T11:10:29.620Z,4.73
2022-10-19T11:13:05.604Z,4.13
2022-10-19T11:15:51.359Z,7.07
2022-10-19T11:18:34.710Z,4.37
2022-10-19T11:21:12.528Z,6.20
2022-10-19T11:24:18.744Z,4.37
2022-10-19T11:27:11.940Z,4.23
2022-10-19T11:30:19.921Z,4.40
2022-10-19T11:32:52.169Z,5.97
2022-10-19T11:35:49.559Z,4.63
2022-10-19T11:38:38.227Z,4.03
2022-10-19T11:41:20.046Z,4.20
2022-10-19T11:43:58.618Z,4.00
2022-10-19T11:46:34.085Z,3.87
2022-10-19T11:49:37.973Z,4.20
2022-10-19T11:52:46.301Z,3.60
2022-10-19T11:55:37.462Z,3.30
2022-10-19T11:58:15.668Z,3.67
2022-10-19T12:00:49.989Z,4.83
2022-10-19T12:03:34.709Z,4.23
2022-10-19T12:06:16.349Z,5.10
2022-10-19T12:09:01.327Z,4.20
2022-10-19T12:11:43.056Z,8.43
2022-10-19T12:14:14.694Z,6.23
2022-10-19T12:16:54.351Z,5.17
2022-10-19T12:19:24.871Z,4.10
2022-10-19T12:21:54.864Z,5.10
2022-10-19T12:24:24.371Z,4.70
2022-10-19T12:26:53.688Z,4.67
2022-10-19T12:29:35.752Z,4.30
2022-10-19T12:32:04.370Z,6.37
2022-10-19T12:34:31.221Z,4.70
2022-10-19T12:37:06.902Z,3.77
2022-10-19T12:39:43.097Z,3.93
2022-10-19T12:42:18.004Z,4.30
2022-10-19T12:44:44.534Z,3.73
2022-10-19T12:47:25.307Z,3.50
2022-10-19T12:49:58.540Z,3.70
2022-10-19T12:52:45.644Z,3.87
2022-10-19T12:55:15.075Z,5.53
2022-10-19T12:57:47.949Z,4.50
2022-10-19T13:00:23.105Z,7.40
2022-10-19T13:03:13.591Z,4.53
2022-10-19T13:05:40.311Z,4.43
2022-10-19T13:08:10.737Z,6.13
2022-10-19T13:10:40.319Z,4.33
2022-10-19T13:13:45.463Z,5.17
2022-10-19T13:16:30.348Z,4.53
2022-10-19T13:18:59.860Z,5.43
2022-10-19T13:22:00.104Z,4.83
2022-10-19T13:24:26.701Z,6.13
2022-10-19T13:27:02.234Z,5.73
2022-10-19T13:29:49.232Z,5.73
2022-10-19T13:32:34.946Z,4.33
2022-10-19T13:35:30.454Z,5.15
2022-10-19T13:38:09.177Z,7.50
2022-10-19T13:40:56.479Z,5.57
2022-10-19T13:43:38.008Z,5.30
2022-10-19T13:46:29.440Z,4.60
2022-10-19T13:49:02.430Z,4.80
2022-10-19T13:51:56.788Z,4.73
2022-10-19T13:54:32.230Z,5.20
2022-10-19T13:57:20.509Z,4.93
2022-10-19T14:00:11.511Z,4.17
2022-10-19T14:02:38.064Z,5.43
2022-10-19T14:05:22.832Z,5.77
2022-10-19T14:08:15.445Z,4.47
2022-10-19T14:11:00.601Z,4.53
2022-10-19T14:13:27.894Z,4.43
2022-10-19T14:15:57.012Z,5.22
2022-10-19T14:18:32.420Z,3.83
2022-10-19T14:21:00.298Z,4.23
2022-10-19T14:23:41.619Z,3.63
2022-10-19T14:26:23.218Z,4.63
2022-10-19T14:28:54.823Z,7.67
2022-10-19T14:31:25.026Z,4.67
2022-10-19T14:33:58.885Z,5.50
2022-10-19T14:36:30.608Z,3.60
2022-10-19T14:38:57.588Z,4.20
2022-10-19T14:41:27.119Z,5.00
2022-10-19T14:43:55.235Z,4.37
2022-10-19T14:46:21.867Z,4.27
2022-10-19T14:48:50.416Z,3.87
2022-10-19T14:51:28.440Z,4.63
2022-10-19T14:54:00.766Z,3.57
2022-10-19T14:56:33.588Z,3.73
2022-10-19T14:59:04.756Z,4.57
2022-10-19T15:01:31.399Z,4.23
2022-10-19T15:03:58.023Z,5.17
2022-10-19T15:06:29.734Z,3.70
2022-10-19T15:09:02.332Z,3.63
2022-10-19T15:11:32.741Z,5.80
2022-10-19T15:14:07.800Z,4.47
2022-10-19T15:16:51.142Z,3.70
2022-10-19T15:19:26.662Z,8.60
2022-10-19T15:22:14.410Z,4.33
2022-10-19T15:24:55.445Z,6.53
2022-10-19T15:27:23.580Z,4.07
2022-10-19T15:29:57.818Z,5.35
2022-10-19T15:32:31.883Z,4.17
2022-10-19T15:34:59.324Z,5.00
2022-10-19T15:39:58.937Z,5.20
2022-10-19T15:42:44.253Z,6.30
2022-10-19T15:45:31.511Z,4.63
2022-10-19T15:48:10.447Z,5.30
2022-10-19T15:50:39.385Z,5.10
2022-10-19T15:53:06.364Z,4.70
2022-10-19T15:55:33.337Z,4.17
2022-10-19T15:58:00.646Z,4.50
2022-10-19T16:00:29.155Z,4.53
2022-10-19T16:02:56.272Z,5.07
2022-10-19T16:05:23.631Z,5.50
2022-10-19T16:07:50.800Z,5.30
2022-10-19T16:10:28.293Z,4.63
2022-10-19T16:12:55.261Z,6.23
2022-10-19T16:15:23.631Z,5.33
2022-10-19T16:17:51.596Z,5.93
2022-10-19T16:20:18.593Z,6.13
2022-10-19T16:22:46.056Z,5.57
2022-10-19T16:25:14.102Z,5.60
2022-10-19T16:27:41.292Z,4.90
2022-10-19T16:30:08.836Z,5.30
2022-10-19T16:32:35.948Z,6.07
2022-10-19T16:35:02.959Z,6.37
2022-10-19T16:37:29.906Z,6.10
2022-10-19T16:39:56.949Z,8.10
2022-10-19T16:42:28.238Z,6.57
2022-10-19T16:44:57.540Z,6.72
2022-10-19T16:47:24.511Z,6.37
2022-10-19T16:49:57.828Z,6.17
2022-10-19T16:52:24.867Z,6.50
2022-10-19T16:54:51.822Z,5.80
2022-10-19T16:57:18.913Z,8.13
2022-10-19T16:59:46.011Z,6.57
2022-10-19T17:02:14.077Z,7.00
2022-10-19T17:04:41.060Z,7.07
2022-10-19T17:07:08.037Z,8.83
2022-10-19T17:09:43.024Z,7.57
2022-10-19T17:12:10.715Z,6.57
2022-10-19T17:14:39.297Z,7.63
2022-10-19T17:17:06.305Z,10.57
2022-10-19T17:19:33.332Z,8.30
2022-10-19T17:22:01.786Z,9.03
2022-10-19T17:24:29.204Z,7.93
2022-10-19T17:26:56.245Z,8.07
2022-10-19T17:29:23.783Z,8.57
2022-10-19T17:31:51.060Z,8.83
2022-10-19T17:34:18.309Z,8.53
2022-10-19T17:36:46.099Z,11.80
2022-10-19T17:39:15.022Z,10.40
2022-10-19T17:41:42.000Z,11.70
2022-10-19T17:44:08.958Z,10.60
2022-10-19T17:46:36.327Z,10.37
2022-10-19T17:49:04.096Z,10.57
2022-10-19T17:51:32.247Z,9.87
2022-10-19T17:54:00.508Z,10.60
2022-10-19T17:56:27.959Z,11.57
2022-10-19T17:58:56.063Z,11.55
2022-10-19T18:01:23.746Z,11.07
2022-10-19T18:03:51.118Z,12.03
2022-10-19T18:06:20.198Z,12.30
2022-10-19T18:08:51.787Z,12.77
2022-10-19T18:11:20.942Z,12.43
2022-10-19T18:13:49.007Z,12.67
2022-10-19T18:16:24.881Z,13.00
2022-10-19T18:18:59.394Z,14.63
2022-10-19T18:21:27.491Z,15.30
2022-10-19T18:23:56.521Z,14.83
2022-10-19T18:26:24.531Z,15.20
2022-10-19T18:28:52.431Z,14.97
2022-10-19T18:31:21.024Z,15.20
2022-10-19T18:33:48.354Z,16.70
2022-10-19T18:36:15.644Z,15.53
2022-10-19T18:38:42.647Z,17.47
2022-10-19T18:43:50.478Z,16.87
2022-10-19T18:46:18.806Z,17.30
2022-10-19T18:48:45.802Z,18.53
2022-10-19T18:51:14.368Z,18.10
2022-10-19T18:53:41.534Z,18.20
2022-10-19T18:56:10.131Z,17.63
2022-10-19T18:58:37.407Z,14.03
2022-10-19T19:01:08.912Z,15.83
2022-10-19T19:03:36.923Z,14.13
2022-10-19T19:06:24.678Z,13.60
2022-10-19T19:08:51.835Z,13.63
2022-10-19T19:11:19.744Z,15.70
2022-10-19T19:13:51.063Z,18.02
2022-10-19T19:16:18.300Z,17.10
2022-10-19T19:18:45.540Z,18.67
2022-10-19T19:21:15.612Z,18.33
2022-10-19T19:23:42.714Z,23.80
2022-10-19T19:26:10.502Z,21.10
2022-10-19T19:28:40.726Z,38.53
2022-10-19T19:31:09.609Z,21.70
2022-10-19T19:33:36.846Z,21.53
2022-10-19T19:36:07.578Z,16.80
2022-10-19T19:38:35.038Z,18.97
2022-10-19T19:41:06.230Z,17.67
2022-10-19T19:43:33.791Z,17.87
2022-10-19T19:46:04.828Z,17.73
2022-10-19T19:48:35.192Z,17.55
2022-10-19T19:51:02.218Z,16.03
2022-10-19T19:53:29.203Z,15.20
2022-10-19T19:55:56.307Z,16.57
2022-10-19T19:58:23.277Z,18.17
2022-10-19T20:00:50.246Z,16.03
2022-10-19T20:03:17.252Z,18.87
2022-10-19T20:05:44.224Z,15.97
2022-10-19T20:08:11.413Z,16.17
2022-10-19T20:10:39.685Z,17.03
2022-10-19T20:13:06.690Z,15.23
2022-10-19T20:15:33.899Z,19.93
2022-10-19T20:18:00.882Z,15.80
2022-10-19T20:20:27.855Z,17.27
2022-10-19T20:22:54.846Z,16.90
2022-10-19T20:25:21.823Z,17.40
2022-10-19T20:27:48.787Z,17.73
2022-10-19T20:30:15.852Z,18.63
2022-10-19T20:32:42.815Z,17.37
2022-10-19T20:35:09.873Z,17.93
2022-10-19T20:37:36.974Z,17.10
2022-10-19T20:40:08.581Z,16.53
2022-10-19T20:42:36.429Z,16.87
2022-10-19T20:45:03.861Z,16.80
2022-10-19T20:47:30.943Z,17.40
2022-10-19T20:49:57.957Z,20.43
2022-10-19T20:52:24.970Z,17.73
2022-10-19T20:54:52.017Z,17.90
2022-10-19T20:57:18.993Z,16.83
2022-10-19T20:59:45.997Z,18.73
2022-10-19T21:02:13.051Z,20.47
2022-10-19T21:04:40.187Z,20.63
2022-10-19T21:07:07.179Z,19.47
2022-10-19T21:09:34.259Z,19.93
2022-10-19T21:12:01.516Z,18.47
2022-10-19T21:14:29.309Z,17.53
2022-10-19T21:16:57.340Z,21.20
2022-10-19T21:19:25.446Z,18.00
2022-10-19T21:21:55.348Z,20.87
2022-10-19T21:24:23.717Z,17.83
2022-10-19T21:29:18.757Z,18.60
2022-10-19T21:31:48.804Z,19.00
2022-10-19T21:34:17.917Z,19.77
2022-10-19T21:36:44.938Z,18.80
2022-10-19T21:39:11.968Z,19.40
2022-10-19T21:41:39.147Z,20.83
2022-10-19T21:44:06.164Z,24.88
2022-10-19T21:46:33.222Z,20.37
2022-10-19T21:49:00.243Z,20.57
2022-10-19T21:51:42.304Z,22.87
2022-10-19T21:56:44.503Z,21.17
2022-10-19T21:59:12.067Z,22.40
2022-10-19T22:01:41.329Z,26.33
2022-10-19T22:04:11.374Z,23.10
2022-10-19T22:06:38.365Z,21.97
2022-10-19T22:09:06.599Z,20.97
2022-10-19T22:11:33.634Z,23.23
2022-10-19T22:14:01.776Z,19.20
2022-10-19T22:16:29.545Z,20.10
2022-10-19T22:18:56.899Z,23.33
2022-10-19T22:21:28.094Z,21.20
2022-10-19T22:24:00.285Z,20.40
2022-10-19T22:26:28.335Z,21.70
2022-10-19T22:28:56.802Z,18.83
2022-10-19T22:31:24.024Z,19.17
2022-10-19T22:33:51.050Z,20.03
2022-10-19T22:36:18.325Z,20.33
2022-10-19T22:38:45.384Z,26.90
2022-10-19T22:41:12.623Z,22.37
2022-10-19T22:43:39.623Z,19.03
2022-10-19T22:46:06.616Z,22.53
2022-10-19T22:48:34.487Z,25.43
2022-10-19T22:51:01.518Z,22.57
2022-10-19T22:53:28.473Z,22.47
2022-10-19T22:55:55.518Z,24.87
2022-10-19T22:58:22.475Z,30.15
2022-10-19T23:01:03.467Z,25.40
2022-10-19T23:03:30.574Z,21.07
2022-10-19T23:05:57.621Z,22.87
2022-10-19T23:08:24.684Z,24.10
2022-10-19T23:10:51.718Z,21.73
2022-10-19T23:13:18.676Z,23.33
2022-10-19T23:15:46.207Z,24.63
2022-10-19T23:18:13.567Z,21.17
2022-10-19T23:20:40.574Z,29.43
2022-10-19T23:23:07.631Z,28.90
2022-10-19T23:25:34.635Z,26.10
2022-10-19T23:28:01.859Z,24.17
2022-10-19T23:30:28.863Z,24.53
2022-10-19T23:32:55.817Z,28.98
2022-10-19T23:35:22.786Z,26.03
2022-10-19T23:37:49.751Z,26.77
2022-10-19T23:40:16.699Z,29.53
2022-10-19T23:42:43.684Z,26.27
2022-10-19T23:45:12.958Z,24.37
2022-10-19T23:47:39.921Z,22.07
2022-10-19T23:50:07.099Z,24.90
2022-10-19T23:52:34.158Z,24.70
2022-10-19T23:55:01.191Z,22.33
2022-10-19T23:57:28.149Z,27.10
2022-10-19T23:59:55.168Z,21.80
